Airfield :
LOGIN :

Register | Disclaimer

   EN    FR    IT 

 










Legend :    VFR   Marginal VFR   IFR   Intensive IFR   Very Intensive IFR
Visi :
Ceiling :
>= 8 km
>= 3000ft
5 to 8 km
1000 to 3000 ft
1500m to 5 km
500 to 1000 ft
800 to 1500m
200 to 500 ft
< 800m
< 200 ft
Symbols :   Thunderstorms  Fog  Heavy snow  Heavy precipitations  Wind > 20 kt
SIGMETs :     Misc.  Thunderstorms  Icing  Turbulence  Mountain Waves  Volcanic Ashes






- Airport Elevation : 376 ft


LHKE - Kecskemét

CURRENT METAR :
  • 270645Z 30004KT 1200 BR SCT005 OVC040 M01/M01 Q1019 R12/11//94 TEMPO -RA -FZRA RMK AMB

EXPIRED METARs :
  • 270615Z 00000KT 1200 BR SCT005 OVC040 M01/M01 Q1019 R12/11//94 NOSIG RMK AMB
  • 270545Z 31002KT 1500 BR SCT005 OVC048 M01/M01 Q1019 R12/11//94 TEMPO 1000 BR RMK AMB
  • 270515Z 33004KT 1500 BR SCT005 OVC070 M01/M02 Q1018 R12/11//94 TEMPO 1000 RMK AMB
  • 270445Z 34004KT 1500 BR SCT005 OVC070 M01/M02 Q1019 R12/11//94 NOSIG RMK AMB
  • 270415Z 36002KT 1500 BR OVC005 M01/M02 Q1019 R12/01//95 NOSIG RMK AMB

TAF TAF LHKE
Valid from the 27 at 06:00 until the 27 at 15:00 UTC


270515Z 2706/2715 34004KT 1500 BR SCT005 BKN025 OVC070
TEMPO 2706/2709 0800 FZFG -FZRA BKN005 OVC025
BECMG 2709/2711 31006KT 3000 BR
TEMPO 2712/2715 5000



MET'MAP, your aeronautical weather chart ! - Copyright ORBIFLY December 2007 - Disclaimer

ORBIFLY MET'MAP TEAM :

Programming & Development : Alexandra Zaïnal
Concept & original design : Baudouin d'Aumeries
Assistance for programming : Marc-Olivier Méhu
Technical & hardware support : Manuel Goepfert

Contact : metmap@orbifly.com




SOURCES & CREDITS :

   NOAA